Time;durP1;ratioP1;P1;durP2;ratioP2;P2;SDS_P1;SDS_P2;PMS_P1;PMS_P2;Temp;Humidity;BMP_temperature;BMP_pressure;BME280_temperature;BME280_humidity;BME280_pressure;Samples;Min_cycle;Max_cycle;Signal;HPM_P1;HPM_P2
2021/03/31 00:00:58;;;;;;;2.83;2.63;;;;;;;13.49;43.86;101235.25;4975258;28;20034;-76
2021/03/31 00:03:27;;;;;;;3.03;2.70;;;;;;;13.53;43.86;101230.53;4974896;28;20439;-76
2021/03/31 00:05:53;;;;;;;3.28;2.55;;;;;;;13.45;44.05;101223.16;4975692;28;20117;-76
2021/03/31 00:08:18;;;;;;;3.20;2.60;;;;;;;13.50;43.47;101226.50;4974295;28;20483;-76
2021/03/31 00:10:53;;;;;;;2.80;2.60;;;;;;;13.63;43.87;101214.09;4974592;28;20050;-76
2021/03/31 00:13:22;;;;;;;4.15;3.03;;;;;;;13.51;44.01;101211.34;4974406;28;20089;-76
2021/03/31 00:15:47;;;;;;;2.83;2.42;;;;;;;13.54;43.41;101218.22;4975957;28;20027;-75
2021/03/31 00:18:16;;;;;;;4.15;2.95;;;;;;;13.57;43.79;101232.28;4974084;28;20050;-75
2021/03/31 00:20:42;;;;;;;3.75;3.28;;;;;;;13.36;44.30;101223.28;4974323;28;20486;-76
2021/03/31 00:23:14;;;;;;;2.72;2.53;;;;;;;13.41;43.96;101225.84;4974507;28;20031;-76
2021/03/31 00:25:40;;;;;;;4.57;2.80;;;;;;;13.33;44.51;101216.44;4974823;28;20037;-75
2021/03/31 00:28:08;;;;;;;5.47;3.17;;;;;;;13.40;44.71;101227.00;4974170;28;20034;-76
2021/03/31 00:30:34;;;;;;;3.35;2.95;;;;;;;13.29;44.61;101223.09;4958263;28;20022;-76
2021/03/31 00:33:00;;;;;;;4.32;2.75;;;;;;;13.20;44.83;101223.22;4974717;28;20042;-75
2021/03/31 00:35:29;;;;;;;3.45;2.97;;;;;;;13.18;45.24;101219.97;4974678;28;20109;-75
2021/03/31 00:37:55;;;;;;;3.22;2.90;;;;;;;13.11;44.90;101220.59;4974127;28;20061;-75
2021/03/31 00:40:21;;;;;;;3.38;2.65;;;;;;;13.08;44.94;101210.13;4974031;28;20034;-76
2021/03/31 00:42:49;;;;;;;4.28;3.17;;;;;;;13.08;45.07;101214.88;4973943;28;20034;-76
2021/03/31 00:45:16;;;;;;;5.30;3.85;;;;;;;13.14;44.54;101209.88;4974494;28;20034;-76
2021/03/31 00:47:44;;;;;;;2.08;1.90;;;;;;;13.11;43.98;101212.22;4974495;28;20034;-76
2021/03/31 00:50:15;;;;;;;4.28;2.70;;;;;;;13.08;44.46;101210.13;4973911;28;20030;-76
2021/03/31 00:52:42;;;;;;;2.80;2.60;;;;;;;13.12;45.49;101210.22;4973879;28;20033;-75
2021/03/31 00:55:10;;;;;;;7.80;2.70;;;;;;;13.13;45.69;101205.44;4974366;28;20121;-76
2021/03/31 00:57:37;;;;;;;2.88;2.55;;;;;;;13.16;45.63;101210.34;4974446;28;20039;-76
2021/03/31 01:00:10;;;;;;;3.72;2.30;;;;;;;13.20;44.07;101189.69;4973827;28;20026;-76
2021/03/31 01:02:39;;;;;;;7.80;2.70;;;;;;;13.18;45.18;101194.81;4973760;28;20039;-76
2021/03/31 01:05:33;;;;;;;2.95;2.33;;;;;;;13.06;45.68;101201.28;4974202;28;20380;-76
2021/03/31 01:07:59;;;;;;;4.47;3.75;;;;;;;13.09;45.95;101194.16;4974804;28;20042;-76
2021/03/31 01:10:43;;;;;;;7.28;5.72;;;;;;;13.00;45.73;101190.72;4976622;28;20397;-76
2021/03/31 01:13:24;;;;;;;5.82;4.65;;;;;;;13.18;44.82;101180.03;4976864;28;20041;-75
2021/03/31 01:15:59;;;;;;;2.17;1.60;;;;;;;13.22;41.03;101201.38;4978498;28;20465;-76
2021/03/31 01:18:47;;;;;;;3.35;2.92;;;;;;;13.23;44.50;101188.22;4980910;28;20030;-76
2021/03/31 01:21:28;;;;;;;4.70;3.28;;;;;;;13.18;44.32;101180.03;4981395;28;20034;-75
2021/03/31 01:24:12;;;;;;;3.83;3.42;;;;;;;13.09;44.91;101178.19;4980871;28;20037;-76
2021/03/31 01:26:55;;;;;;;3.20;2.72;;;;;;;13.10;44.20;101174.25;4980712;28;20030;-76
2021/03/31 01:29:31;;;;;;;3.35;2.90;;;;;;;13.09;45.00;101177.41;4980514;28;20497;-75
2021/03/31 01:32:11;;;;;;;6.65;2.72;;;;;;;12.98;45.04;101177.09;4980607;28;20110;-76
2021/03/31 01:35:00;;;;;;;2.45;2.25;;;;;;;12.99;44.43;101173.13;4998031;28;20034;-76
2021/03/31 01:37:37;;;;;;;2.35;2.15;;;;;;;13.03;44.53;101171.25;4981274;28;20023;-77
2021/03/31 01:40:06;;;;;;;3.88;2.40;;;;;;;12.92;44.66;101170.13;5002983;28;20027;-76
2021/03/31 01:42:54;;;;;;;2.20;2.00;;;;;;;12.92;44.16;101178.50;4980690;28;20508;-76
2021/03/31 01:45:25;;;;;;;1.85;1.75;;;;;;;12.88;44.33;101172.00;4981689;28;20039;-76
2021/03/31 01:47:51;;;;;;;2.05;1.65;;;;;;;12.98;43.10;101171.50;4980417;28;20034;-75
2021/03/31 01:50:17;;;;;;;4.18;1.88;;;;;;;12.97;43.41;101175.47;4964437;28;20049;-76
2021/03/31 01:52:44;;;;;;;2.13;1.90;;;;;;;12.94;44.15;101175.34;4980189;28;20481;-76
2021/03/31 01:55:13;;;;;;;6.25;2.40;;;;;;;13.01;44.96;101175.59;4980522;28;20114;-76
2021/03/31 01:57:39;;;;;;;2.50;2.30;;;;;;;12.98;45.60;101171.50;4964189;28;20035;-76
2021/03/31 02:00:11;;;;;;;2.53;2.20;;;;;;;12.92;44.23;101166.53;4980117;28;20038;-76
2021/03/31 02:02:40;;;;;;;4.25;2.63;;;;;;;12.88;44.62;101169.22;4980572;28;20026;-76
2021/03/31 02:05:10;;;;;;;2.33;2.13;;;;;;;12.87;44.99;101172.38;4980486;28;20027;-76
2021/03/31 02:07:35;;;;;;;2.10;2.00;;;;;;;12.79;45.12;101174.97;4963818;28;20031;-76
2021/03/31 02:10:01;;;;;;;3.10;1.92;;;;;;;12.78;46.39;101169.69;4976215;28;20054;-76
2021/03/31 02:12:28;;;;;;;4.53;2.50;;;;;;;12.86;45.64;101168.75;4976735;28;20043;-76
2021/03/31 02:14:55;;;;;;;2.38;2.13;;;;;;;12.87;45.58;101169.56;4977262;28;20521;-76
2021/03/31 02:17:26;;;;;;;3.05;2.70;;;;;;;12.82;45.80;101170.63;4977351;28;20389;-75
2021/03/31 02:19:53;;;;;;;2.65;2.45;;;;;;;12.83;46.43;101172.25;4979794;28;20027;-76
2021/03/31 02:22:21;;;;;;;3.70;3.22;;;;;;;12.72;46.29;101168.34;4982059;28;20053;-76
2021/03/31 02:24:56;;;;;;;4.20;2.92;;;;;;;12.67;45.43;101163.81;4979041;28;20066;-76
2021/03/31 02:27:22;;;;;;;3.88;2.92;;;;;;;12.65;45.63;101166.16;4960650;28;20042;-76
2021/03/31 02:29:50;;;;;;;6.65;5.25;;;;;;;12.65;45.19;101156.97;4960453;28;20113;-76
2021/03/31 02:32:22;;;;;;;7.13;4.10;;;;;;;12.61;47.07;101167.19;4976325;28;20500;-76
2021/03/31 02:34:50;;;;;;;7.40;6.70;;;;;;;12.54;47.26;101157.44;4976231;28;20030;-76
2021/03/31 02:37:17;;;;;;;5.00;4.00;;;;;;;12.59;46.10;101162.78;4976244;28;20062;-76
2021/03/31 02:39:46;;;;;;;5.45;3.53;;;;;;;12.59;47.38;101154.41;4976703;28;20466;-75
2021/03/31 02:42:15;;;;;;;4.95;3.75;;;;;;;12.58;47.72;101166.75;4976420;28;20067;-75
2021/03/31 02:44:44;;;;;;;4.65;4.10;;;;;;;12.67;47.75;101154.63;4975739;28;20126;-76
2021/03/31 02:47:13;;;;;;;5.10;2.85;;;;;;;12.65;46.82;101152.19;4976105;28;20041;-76
2021/03/31 02:49:54;;;;;;;3.00;2.70;;;;;;;12.61;47.01;101150.44;4976606;28;20159;-76
2021/03/31 02:52:22;;;;;;;2.85;2.60;;;;;;;12.47;47.65;101150.84;4975970;28;20065;-76
2021/03/31 02:54:56;;;;;;;4.00;2.97;;;;;;;12.57;46.79;101150.38;4976221;28;20030;-76
2021/03/31 02:57:23;;;;;;;3.20;2.90;;;;;;;12.46;47.06;101110.94;4977141;28;20031;-76
2021/03/31 02:59:50;;;;;;;2.90;2.70;;;;;;;12.56;46.85;101146.72;4977328;28;20113;-76
2021/03/31 03:02:19;;;;;;;3.30;3.00;;;;;;;12.52;46.39;101136.66;4975786;28;20034;-76
2021/03/31 03:04:52;;;;;;;3.50;2.80;;;;;;;12.50;45.44;101141.75;4959566;28;20066;-76
2021/03/31 03:07:20;;;;;;;3.33;2.30;;;;;;;12.61;45.77;101136.50;4975687;28;20086;-76
2021/03/31 03:09:47;;;;;;;3.10;2.00;;;;;;;12.56;46.08;101131.97;4975220;28;20085;-76
2021/03/31 03:12:14;;;;;;;2.35;1.90;;;;;;;12.47;46.19;101134.09;4976126;28;20047;-76
2021/03/31 03:14:42;;;;;;;5.43;3.17;;;;;;;12.52;46.38;101137.47;4975565;28;20117;-76
2021/03/31 03:17:08;;;;;;;4.40;2.72;;;;;;;12.51;45.57;101121.84;4975485;28;20488;-76
2021/03/31 03:19:33;;;;;;;3.97;3.33;;;;;;;12.51;45.46;101130.22;4975466;28;20121;-76
2021/03/31 03:22:01;;;;;;;4.97;4.50;;;;;;;12.60;46.02;101124.50;4975967;28;20111;-76
2021/03/31 03:24:28;;;;;;;6.25;3.20;;;;;;;12.74;45.05;101130.53;4975691;28;20062;-75
2021/03/31 03:26:57;;;;;;;3.92;1.90;;;;;;;12.74;43.73;101126.94;4975340;28;20026;-76
2021/03/31 03:29:24;;;;;;;5.22;2.80;;;;;;;12.78;44.92;101131.44;4975918;28;20347;-76
2021/03/31 03:31:50;;;;;;;2.97;2.30;;;;;;;12.78;44.47;101125.88;4976519;28;20034;-76
2021/03/31 03:34:16;;;;;;;4.40;3.53;;;;;;;12.83;44.41;101120.00;4975186;28;20389;-75
2021/03/31 03:36:43;;;;;;;3.97;3.08;;;;;;;12.84;44.01;101115.25;4975135;28;20031;-76
2021/03/31 03:39:11;;;;;;;2.75;2.33;;;;;;;12.87;43.69;101114.53;4975134;28;20060;-75
2021/03/31 03:41:37;;;;;;;3.95;2.97;;;;;;;12.89;43.80;101116.94;4975083;28;20038;-76
2021/03/31 03:44:05;;;;;;;7.18;4.18;;;;;;;12.92;44.45;101110.66;4974967;28;20023;-76
2021/03/31 03:46:33;;;;;;;9.65;7.22;;;;;;;12.87;44.57;101119.28;4975008;28;20081;-76
2021/03/31 03:49:00;;;;;;;10.75;9.02;;;;;;;12.92;45.23;101113.47;4975448;28;20482;-76
2021/03/31 03:51:26;;;;;;;7.97;6.65;;;;;;;12.84;44.82;101104.06;4975456;28;20541;-76
2021/03/31 03:53:55;;;;;;;4.22;3.13;;;;;;;12.81;43.65;101105.59;4974922;28;20134;-76
2021/03/31 03:56:34;;;;;;;11.73;9.52;;;;;;;12.81;44.45;101104.78;4975063;28;20065;-76
2021/03/31 03:59:17;;;;;;;9.07;7.60;;;;;;;13.07;44.15;101107.91;4974765;28;20118;-76
2021/03/31 04:01:44;;;;;;;10.05;7.97;;;;;;;12.89;44.75;101112.22;4974686;28;20035;-76
2021/03/31 04:04:09;;;;;;;6.47;5.28;;;;;;;12.81;43.71;101113.16;4974585;28;20022;-76
2021/03/31 04:06:35;;;;;;;5.80;4.82;;;;;;;12.89;43.35;101111.38;4974613;28;20045;-76
2021/03/31 04:09:00;;;;;;;5.88;4.20;;;;;;;12.84;44.89;101126.41;4974011;28;20046;-76
2021/03/31 04:11:29;;;;;;;5.03;3.80;;;;;;;12.75;45.87;101120.16;4974502;28;20046;-76
2021/03/31 04:14:02;;;;;;;4.43;3.97;;;;;;;12.70;46.13;101120.41;4974516;28;20034;-76
2021/03/31 04:16:31;;;;;;;8.38;5.47;;;;;;;12.68;46.37;101117.19;4975965;28;20128;-76
2021/03/31 04:19:03;;;;;;;4.60;3.72;;;;;;;12.72;46.53;101115.28;4974369;28;20474;-76
2021/03/31 04:21:40;;;;;;;4.75;3.28;;;;;;;12.56;47.10;101113.22;4974321;28;20105;-76
2021/03/31 04:24:13;;;;;;;3.47;3.00;;;;;;;12.65;47.04;101117.88;4974240;28;20482;-76
2021/03/31 04:26:39;;;;;;;4.88;2.80;;;;;;;12.44;48.39;101121.66;4975863;28;20023;-76
2021/03/31 04:29:07;;;;;;;3.38;2.83;;;;;;;12.37;48.13;101115.06;4974508;28;20418;-76
2021/03/31 04:31:35;;;;;;;7.70;2.72;;;;;;;12.27;48.72;101119.13;4974182;28;20039;-76
2021/03/31 04:34:01;;;;;;;2.65;2.33;;;;;;;12.20;48.51;101114.16;4974181;28;20037;-76
2021/03/31 04:36:31;;;;;;;3.65;2.58;;;;;;;12.36;48.26;101116.19;4974435;28;20038;-76
2021/03/31 04:39:03;;;;;;;8.05;2.80;;;;;;;12.12;49.54;101117.06;4958187;28;20042;-76
2021/03/31 04:41:32;;;;;;;2.03;1.90;;;;;;;12.05;49.29;101107.31;4974104;28;20030;-76
2021/03/31 04:43:57;;;;;;;2.80;2.20;;;;;;;12.01;49.67;101116.72;4974384;28;20481;-77
2021/03/31 04:46:25;;;;;;;4.32;2.10;;;;;;;12.07;49.49;101113.34;4976951;28;20038;-76
2021/03/31 04:48:51;;;;;;;5.65;2.70;;;;;;;12.07;49.37;101118.94;4978908;28;20037;-76
2021/03/31 04:51:16;;;;;;;3.40;2.38;;;;;;;12.04;50.43;101114.06;4974445;28;20030;-75
2021/03/31 04:53:42;;;;;;;2.85;2.47;;;;;;;12.14;48.87;101112.75;4974197;28;20034;-76
2021/03/31 04:56:08;;;;;;;2.40;2.20;;;;;;;12.12;48.97;101122.66;4973918;28;20031;-76
2021/03/31 04:58:33;;;;;;;4.40;3.30;;;;;;;12.10;49.03;101109.06;4974116;28;20034;-76
2021/03/31 05:01:02;;;;;;;5.10;3.60;;;;;;;12.09;49.49;101115.81;4973799;28;20023;-75
2021/03/31 05:03:28;;;;;;;3.45;3.15;;;;;;;12.03;49.80;101131.13;4973563;28;20389;-76
2021/03/31 05:05:55;;;;;;;3.33;3.03;;;;;;;12.12;49.82;101128.22;4973841;28;20058;-76
2021/03/31 05:08:20;;;;;;;3.80;2.90;;;;;;;12.61;48.29;101125.31;4975840;28;20038;-76
2021/03/31 05:10:46;;;;;;;6.03;3.35;;;;;;;12.90;47.24;101125.00;4977479;28;20036;-76
2021/03/31 05:13:14;;;;;;;3.78;3.38;;;;;;;13.37;46.33;101127.13;4977438;28;20030;-75
2021/03/31 05:15:40;;;;;;;9.82;4.05;;;;;;;13.84;44.67;101109.50;4976862;28;20018;-76
2021/03/31 05:18:06;;;;;;;5.43;3.97;;;;;;;14.49;43.71;101114.63;4977575;28;20104;-76
2021/03/31 05:20:31;;;;;;;6.45;3.45;;;;;;;15.04;41.84;101107.75;4976594;28;20069;-76
2021/03/31 05:22:57;;;;;;;9.25;4.40;;;;;;;15.53;40.68;101118.28;4977353;28;20068;-76
2021/03/31 05:25:22;;;;;;;7.47;4.05;;;;;;;16.00;39.24;101094.63;4976749;28;20029;-76
2021/03/31 05:27:48;;;;;;;3.72;2.97;;;;;;;16.33;37.92;101109.94;4976713;28;20045;-77
2021/03/31 05:30:14;;;;;;;4.25;3.10;;;;;;;16.79;36.53;101092.91;4977216;28;20117;-76
2021/03/31 05:32:47;;;;;;;8.32;3.80;;;;;;;17.55;35.66;101104.56;4977260;28;20470;-76
2021/03/31 05:35:13;;;;;;;6.47;4.60;;;;;;;17.94;34.71;101106.91;4976952;28;20389;-76
2021/03/31 05:37:39;;;;;;;5.45;4.55;;;;;;;18.38;34.86;101104.00;4976765;28;20033;-76
2021/03/31 05:40:06;;;;;;;20.65;13.73;;;;;;;19.15;33.66;101104.72;4977298;28;20090;-76
2021/03/31 05:42:33;;;;;;;34.63;24.75;;;;;;;19.50;33.21;101101.16;4976289;28;20073;-76
2021/03/31 05:45:01;;;;;;;25.10;18.00;;;;;;;20.20;31.74;101118.50;4992638;28;20037;-76
2021/03/31 05:47:35;;;;;;;12.80;10.90;;;;;;;19.98;31.36;101117.72;4993944;28;20030;-76
2021/03/31 05:50:02;;;;;;;14.70;12.68;;;;;;;20.61;30.84;101106.69;4977058;28;20034;-76
2021/03/31 05:52:31;;;;;;;11.88;6.68;;;;;;;20.11;31.03;101112.47;4993832;28;20041;-76
2021/03/31 05:54:57;;;;;;;13.32;8.15;;;;;;;20.58;30.58;101107.53;4993047;28;20033;-88
2021/03/31 05:57:26;;;;;;;5.90;4.00;;;;;;;19.79;31.45;101107.66;4976810;28;20034;-87
2021/03/31 06:02:28;;;;;;;6.28;3.67;;;;;;;19.69;30.76;101111.28;5164349;23;20062;-81
2021/03/31 06:04:54;;;;;;;3.80;3.40;;;;;;;20.58;30.38;101101.88;5044549;28;20021;-86
2021/03/31 06:07:23;;;;;;;4.28;2.85;;;;;;;20.41;29.36;101098.69;5020325;28;20529;-86
2021/03/31 06:20:33;;;;;;;9.30;6.55;;;;;;;20.35;29.97;101114.44;5035796;22;20055;-88
2021/03/31 06:23:08;;;;;;;6.65;4.85;;;;;;;20.91;29.01;101106.97;4980459;28;20023;-88
2021/03/31 06:25:40;;;;;;;5.65;4.07;;;;;;;20.92;28.62;101094.44;4997120;28;20125;-90
2021/03/31 06:28:07;;;;;;;8.25;5.22;;;;;;;20.80;28.99;101102.59;4980518;28;20096;-89
2021/03/31 06:30:33;;;;;;;7.18;6.00;;;;;;;21.29;27.35;101112.84;4964087;28;20031;-91
2021/03/31 06:33:00;;;;;;;9.25;5.38;;;;;;;20.22;29.54;101101.94;4994678;28;20093;-84
2021/03/31 06:35:28;;;;;;;5.93;5.32;;;;;;;20.86;29.10;101101.75;4966007;28;20030;-89
2021/03/31 06:38:08;;;;;;;7.68;6.88;;;;;;;20.60;28.45;101110.75;4979903;28;20117;-90
2021/03/31 06:40:49;;;;;;;8.25;6.13;;;;;;;21.47;27.83;101107.09;4980169;28;20473;-89
2021/03/31 06:46:09;;;;;;;13.40;4.57;;;;;;;21.06;28.24;101104.09;4996754;28;20393;-90
2021/03/31 06:48:32;;;;;;;6.63;3.72;;;;;;;20.69;28.74;101099.81;4996407;28;20038;-88
2021/03/31 06:50:57;;;;;;;4.72;4.32;;;;;;;20.81;29.30;101102.19;4997163;28;20027;-87
2021/03/31 06:53:34;;;;;;;8.88;4.32;;;;;;;21.19;28.54;101099.56;4979730;28;20030;-88
2021/03/31 06:56:05;;;;;;;8.00;3.97;;;;;;;21.57;27.63;101085.56;4979600;28;20421;-88
2021/03/31 06:58:32;;;;;;;5.80;4.07;;;;;;;22.30;26.88;101088.16;4979152;28;20125;-91
2021/03/31 07:00:58;;;;;;;5.88;3.88;;;;;;;22.85;26.23;101091.94;4979625;28;20129;-89
2021/03/31 07:03:24;;;;;;;6.50;3.58;;;;;;;22.60;26.99;101097.94;4996577;28;20030;-88
2021/03/31 07:05:50;;;;;;;4.78;4.00;;;;;;;23.00;26.61;101099.88;4979283;28;20061;-88
2021/03/31 07:08:17;;;;;;;6.43;3.97;;;;;;;22.91;25.92;101108.13;4996496;28;20069;-87
2021/03/31 07:10:54;;;;;;;6.22;4.60;;;;;;;23.64;25.98;101091.66;4996452;28;20484;-89
2021/03/31 07:13:29;;;;;;;5.93;4.60;;;;;;;23.08;25.86;101082.75;4978690;28;20026;-87
2021/03/31 07:15:56;;;;;;;6.82;4.25;;;;;;;22.46;26.79;101099.72;4979291;28;20030;-90
2021/03/31 07:18:23;;;;;;;8.75;4.63;;;;;;;21.66;27.74;101100.88;4996695;28;20497;-89
2021/03/31 07:20:49;;;;;;;6.40;4.85;;;;;;;21.61;28.06;101073.00;4996636;28;20031;-90
2021/03/31 07:23:14;;;;;;;7.65;4.75;;;;;;;22.00;27.82;101079.53;4979422;28;20065;-90
2021/03/31 07:25:40;;;;;;;7.40;5.20;;;;;;;22.21;27.19;101093.50;4978946;28;20500;-89
2021/03/31 07:28:07;;;;;;;9.32;6.65;;;;;;;22.63;27.34;101097.09;4963040;28;20027;-90
2021/03/31 07:30:33;;;;;;;10.50;7.53;;;;;;;21.47;28.32;101100.63;4996202;28;20038;-89
2021/03/31 07:33:21;;;;;;;10.52;7.03;;;;;;;20.92;29.46;101091.63;4978993;28;20034;-88
2021/03/31 07:35:49;;;;;;;8.23;5.18;;;;;;;20.96;29.46;101096.47;4996330;28;20033;-89
2021/03/31 07:38:18;;;;;;;6.28;5.30;;;;;;;21.08;29.27;101093.16;4996212;28;20053;-90
2021/03/31 07:40:45;;;;;;;8.80;4.70;;;;;;;21.72;28.70;101098.38;4978885;28;20088;-91
2021/03/31 07:43:41;;;;;;;9.73;5.72;;;;;;;22.01;27.93;101089.66;4978416;28;20029;-90
2021/03/31 07:46:14;;;;;;;5.90;5.40;;;;;;;22.93;26.85;101090.66;4976677;28;20470;-90
2021/03/31 07:48:41;;;;;;;8.25;5.22;;;;;;;22.67;26.61;101086.50;4978700;28;20608;-91
2021/03/31 07:51:29;;;;;;;4.88;3.50;;;;;;;22.32;25.85;101094.22;4978558;28;20022;-91
2021/03/31 07:53:57;;;;;;;3.90;2.97;;;;;;;22.31;26.40;101086.13;4996177;28;20026;-89
2021/03/31 07:56:45;;;;;;;4.75;3.40;;;;;;;22.93;25.04;101082.16;4978521;28;20030;-90
2021/03/31 07:59:12;;;;;;;5.03;3.38;;;;;;;23.64;24.69;101092.44;4978978;28;20024;-89
2021/03/31 08:01:50;;;;;;;5.53;3.28;;;;;;;23.58;24.62;101082.78;4996061;28;20042;-88
2021/03/31 08:04:20;;;;;;;4.40;3.08;;;;;;;23.12;25.35;101080.69;4978157;28;20080;-90
2021/03/31 08:06:47;;;;;;;3.00;2.70;;;;;;;22.52;26.03;101068.06;4978530;28;20030;-90
2021/03/31 08:09:28;;;;;;;5.55;3.10;;;;;;;22.25;26.28;101068.75;4995786;28;20497;-89
2021/03/31 08:11:58;;;;;;;3.80;2.70;;;;;;;22.54;26.40;101068.44;4995391;28;20429;-91
2021/03/31 08:14:27;;;;;;;4.50;3.00;;;;;;;22.59;26.37;101073.66;4978448;28;20027;-90
2021/03/31 08:16:55;;;;;;;3.40;3.10;;;;;;;22.40;26.64;101083.59;4978102;28;20040;-89
2021/03/31 08:19:32;;;;;;;6.90;3.42;;;;;;;22.32;26.69;101079.22;4978213;28;20052;-87
2021/03/31 08:22:18;;;;;;;3.10;2.80;;;;;;;23.88;25.18;101084.75;4978456;28;20058;-90
2021/03/31 08:24:49;;;;;;;9.50;4.03;;;;;;;23.72;25.38;101071.22;4995149;28;20034;-90
2021/03/31 08:27:15;;;;;;;5.00;3.75;;;;;;;23.57;25.55;101089.69;4994930;28;20038;-89
2021/03/31 08:29:42;;;;;;;5.30;3.40;;;;;;;23.67;25.13;101048.19;4995199;28;20034;-90
2021/03/31 08:32:09;;;;;;;7.05;3.50;;;;;;;23.58;25.87;101067.78;4977655;28;20026;-91
2021/03/31 08:34:36;;;;;;;5.07;4.20;;;;;;;23.40;25.80;101082.28;4978414;28;20030;-92
2021/03/31 08:37:07;;;;;;;4.97;3.55;;;;;;;23.32;25.83;101060.91;4995306;28;20033;-92
2021/03/31 08:39:33;;;;;;;5.63;3.80;;;;;;;23.17;25.73;101068.81;4978241;28;20030;-91
2021/03/31 08:41:59;;;;;;;4.35;3.53;;;;;;;23.06;26.21;101100.19;4994793;28;20097;-91
2021/03/31 08:44:34;;;;;;;3.97;3.38;;;;;;;23.37;25.95;101095.28;4978265;28;20026;-90
2021/03/31 08:47:16;;;;;;;5.70;3.90;;;;;;;23.85;25.36;101085.59;4977987;28;20038;-92
2021/03/31 08:49:43;;;;;;;3.70;3.40;;;;;;;24.93;24.35;101073.75;4995676;28;20042;-90
2021/03/31 08:52:11;;;;;;;5.75;3.75;;;;;;;25.98;23.22;101081.44;4961676;28;20062;-90
2021/03/31 08:54:54;;;;;;;5.20;4.00;;;;;;;26.97;22.13;101072.09;4977993;28;20058;-88
2021/03/31 08:57:26;;;;;;;4.38;3.75;;;;;;;26.70;21.92;101060.31;4994536;28;20034;-90
2021/03/31 08:59:57;;;;;;;3.03;2.83;;;;;;;26.34;22.03;101079.22;4961936;28;20096;-86
2021/03/31 09:02:26;;;;;;;6.55;4.10;;;;;;;26.71;22.06;101073.31;4977658;28;20104;-88
2021/03/31 09:04:53;;;;;;;4.22;3.50;;;;;;;26.08;22.86;101066.88;4994610;28;20026;-88
2021/03/31 09:07:18;;;;;;;3.85;3.28;;;;;;;25.40;23.65;101075.53;4994751;28;20034;-91
2021/03/31 09:09:45;;;;;;;3.78;3.30;;;;;;;24.74;24.72;101066.03;4977028;28;20081;-91
2021/03/31 09:12:16;;;;;;;3.28;2.97;;;;;;;24.71;25.34;101064.06;4994766;28;20470;-93
2021/03/31 09:14:44;;;;;;;4.25;3.05;;;;;;;24.59;24.87;101024.91;4994837;28;20042;-92
2021/03/31 09:17:15;;;;;;;5.43;3.30;;;;;;;24.26;25.38;101064.56;4994679;28;20485;-91
2021/03/31 09:19:42;;;;;;;4.28;3.33;;;;;;;23.29;26.65;101062.56;4994406;28;20125;-89
2021/03/31 09:22:19;;;;;;;3.33;3.00;;;;;;;23.09;27.40;101038.94;4994966;28;20065;-88
2021/03/31 09:24:49;;;;;;;3.75;3.22;;;;;;;23.78;26.15;101057.31;4994849;28;20462;-91
2021/03/31 09:27:21;;;;;;;3.40;3.10;;;;;;;23.58;26.54;101056.41;4994656;28;20377;-90
2021/03/31 09:29:48;;;;;;;4.97;3.13;;;;;;;23.50;26.45;101036.66;4961316;28;20073;-92
2021/03/31 09:32:18;;;;;;;4.97;3.33;;;;;;;23.73;26.76;101049.28;4977140;28;20056;-90
2021/03/31 09:34:44;;;;;;;3.13;2.88;;;;;;;23.80;25.68;101043.47;4977600;28;20409;-92
2021/03/31 09:37:14;;;;;;;4.93;3.13;;;;;;;23.73;25.95;101027.38;4996189;28;20065;-92
2021/03/31 09:39:47;;;;;;;4.38;3.97;;;;;;;23.98;25.45;101031.78;4981657;28;20417;-91
2021/03/31 09:42:31;;;;;;;4.28;3.20;;;;;;;24.54;25.10;101035.56;4981289;28;20535;-89
2021/03/31 09:44:57;;;;;;;4.35;3.15;;;;;;;24.71;24.37;101033.56;4998932;28;20073;-87
2021/03/31 09:47:26;;;;;;;4.30;3.50;;;;;;;24.25;25.09;101026.78;4980838;28;20034;-87
2021/03/31 09:49:53;;;;;;;5.18;3.28;;;;;;;24.88;24.73;101031.59;4965043;28;20034;-86
2021/03/31 09:52:45;;;;;;;4.30;3.70;;;;;;;24.55;24.89;101022.97;4997851;28;20105;-86
2021/03/31 09:55:14;;;;;;;4.78;3.20;;;;;;;24.70;25.18;101014.09;4975453;28;20519;-89
2021/03/31 09:57:41;;;;;;;3.65;2.85;;;;;;;24.56;25.11;101016.03;4980766;28;20359;-91
2021/03/31 10:00:10;;;;;;;6.60;2.85;;;;;;;24.25;25.88;101015.41;4997893;28;20036;-88
2021/03/31 10:02:37;;;;;;;5.05;3.30;;;;;;;24.68;25.67;101013.75;4980581;28;20125;-92
2021/03/31 10:05:11;;;;;;;4.43;2.70;;;;;;;25.66;24.18;101014.63;4998008;28;20026;-91
2021/03/31 10:07:37;;;;;;;3.72;2.42;;;;;;;25.48;24.63;101012.25;4980449;28;20026;-87
2021/03/31 10:10:05;;;;;;;3.55;2.80;;;;;;;26.55;23.58;100988.56;4980642;28;20037;-88
2021/03/31 10:12:32;;;;;;;3.90;2.53;;;;;;;26.87;22.95;101001.84;4980329;28;20022;-87
2021/03/31 10:15:00;;;;;;;7.47;2.95;;;;;;;27.56;22.40;100996.31;4998207;28;20126;-87
2021/03/31 10:17:28;;;;;;;2.67;2.42;;;;;;;27.92;21.82;100977.94;4980109;28;20026;-86
2021/03/31 10:20:04;;;;;;;2.55;2.35;;;;;;;28.40;21.50;100996.63;4996956;28;20061;-88
2021/03/31 10:22:30;;;;;;;3.30;1.77;;;;;;;27.99;21.70;100988.31;4980190;28;20035;-87
2021/03/31 10:24:56;;;;;;;4.40;2.50;;;;;;;26.66;23.47;100989.03;4963558;28;20475;-88
2021/03/31 10:27:41;;;;;;;2.95;2.38;;;;;;;27.07;22.66;100953.91;4979769;28;20041;-89
2021/03/31 10:30:07;;;;;;;2.78;2.58;;;;;;;26.69;23.57;100973.06;4980014;28;20038;-88
2021/03/31 10:32:34;;;;;;;6.80;2.33;;;;;;;27.21;23.05;100986.91;4963361;28;20035;-88
2021/03/31 10:35:01;;;;;;;3.75;3.30;;;;;;;26.64;23.41;100972.38;4997327;28;20081;-87
2021/03/31 10:51:07;;;;;;;2.88;2.65;;;;;;;23.66;27.46;100958.53;5004513;28;20050;-86
2021/03/31 10:53:36;;;;;;;3.42;2.50;;;;;;;24.06;27.54;100947.97;4983065;28;20109;-87
2021/03/31 10:56:03;;;;;;;3.28;2.60;;;;;;;23.76;27.97;100951.84;4982586;28;20034;-86
2021/03/31 10:58:30;;;;;;;2.88;2.40;;;;;;;24.07;27.70;100908.97;5004022;28;20026;-88
2021/03/31 11:00:55;;;;;;;2.47;2.25;;;;;;;24.56;27.13;100936.38;4981410;28;20045;-89
2021/03/31 11:03:23;;;;;;;3.42;2.50;;;;;;;23.93;26.79;100905.22;4979363;28;20417;-87
2021/03/31 11:05:49;;;;;;;2.60;2.40;;;;;;;24.39;26.69;100926.16;4981554;28;20018;-87
2021/03/31 11:08:14;;;;;;;4.65;2.30;;;;;;;24.25;27.20;100932.16;4979396;28;20489;-90
2021/03/31 11:10:40;;;;;;;7.90;3.17;;;;;;;24.24;27.52;100925.66;4980374;28;20030;-87
2021/03/31 11:13:05;;;;;;;2.90;2.47;;;;;;;24.80;26.61;100939.06;4979297;28;20030;-90
2021/03/31 11:15:31;;;;;;;5.47;2.33;;;;;;;24.77;26.70;100925.72;4979770;28;20093;-89
2021/03/31 11:25:58;;;;;;;5.50;2.72;;;;;;;23.77;27.80;100919.34;4996702;28;20065;-88
2021/03/31 11:28:25;;;;;;;2.35;2.15;;;;;;;23.96;27.28;100887.25;4980261;28;20030;-90
2021/03/31 11:30:51;;;;;;;3.97;2.90;;;;;;;23.95;27.69;100907.59;4996251;28;20034;-87
2021/03/31 11:33:17;;;;;;;4.13;3.08;;;;;;;23.62;28.74;100909.47;4978874;28;20030;-86
2021/03/31 11:35:43;;;;;;;3.10;2.60;;;;;;;23.22;28.61;100886.66;4963003;28;20035;-84
2021/03/31 11:38:10;;;;;;;3.15;2.95;;;;;;;23.50;28.13;100897.50;4979127;28;20037;-90
2021/03/31 11:40:35;;;;;;;6.43;2.78;;;;;;;23.26;28.67;100899.56;4978883;28;20038;-86
2021/03/31 11:43:01;;;;;;;3.25;2.70;;;;;;;23.51;28.41;100889.78;4978981;28;20366;-87
2021/03/31 11:45:27;;;;;;;3.50;2.90;;;;;;;24.09;28.01;100900.84;4978810;28;20030;-89
2021/03/31 11:47:53;;;;;;;5.93;2.28;;;;;;;24.62;27.12;100902.50;4978740;28;20121;-88
2021/03/31 11:50:18;;;;;;;2.97;2.55;;;;;;;25.50;26.35;100890.09;4978204;28;20073;-88
2021/03/31 11:52:44;;;;;;;2.45;2.25;;;;;;;25.28;26.19;100900.47;4978557;28;20030;-88
2021/03/31 11:55:10;;;;;;;2.38;2.17;;;;;;;25.68;25.50;100901.03;4978510;28;20038;-87
2021/03/31 11:57:35;;;;;;;2.28;2.08;;;;;;;25.18;25.96;100893.81;4977982;28;20113;-87
2021/03/31 12:00:04;;;;;;;2.47;2.25;;;;;;;24.86;26.41;100890.94;4978076;28;20026;-87
2021/03/31 12:02:29;;;;;;;2.88;2.65;;;;;;;24.59;26.89;100883.47;4994789;28;20041;-88
2021/03/31 12:04:55;;;;;;;2.92;2.35;;;;;;;24.95;26.46;100883.38;4978002;28;20022;-89
2021/03/31 12:07:23;;;;;;;7.65;6.88;;;;;;;24.68;27.02;100885.69;4995478;28;20038;-88
2021/03/31 12:09:49;;;;;;;3.40;3.10;;;;;;;25.42;26.12;100877.31;4995515;28;20068;-88
2021/03/31 12:12:15;;;;;;;2.80;2.45;;;;;;;25.95;25.67;100868.53;4977904;28;20030;-89